Time;durP1;ratioP1;P1;durP2;ratioP2;P2;SDS_P1;SDS_P2;PMS_P1;PMS_P2;Temp;Humidity;BMP_temperature;BMP_pressure;BME280_temperature;BME280_humidity;BME280_pressure;Samples;Min_cycle;Max_cycle;Signal;HPM_P1;HPM_P2
2022/06/14 00:02:59;;;;;;;1.23;1.13;;;20.20;99.90;;;;;;4965796;28;20205;-72
2022/06/14 00:05:27;;;;;;;1.10;1.00;;;20.10;99.90;;;;;;4962534;28;20229;-73
2022/06/14 00:07:54;;;;;;;1.33;1.23;;;20.20;99.90;;;;;;4967181;28;20210;-73
2022/06/14 00:10:22;;;;;;;1.10;1.10;;;20.20;99.90;;;;;;4968884;28;20288;-73
2022/06/14 00:12:49;;;;;;;1.25;1.17;;;20.20;99.90;;;;;;4966543;28;20617;-73
2022/06/14 00:15:16;;;;;;;1.20;1.20;;;20.20;99.90;;;;;;4971333;28;20576;-73
2022/06/14 00:17:43;;;;;;;1.77;0.90;;;20.20;99.90;;;;;;4969953;28;20209;-73
2022/06/14 00:20:11;;;;;;;1.30;1.20;;;20.20;99.90;;;;;;4971974;28;20217;-73
2022/06/14 00:22:40;;;;;;;1.10;1.00;;;20.20;99.90;;;;;;4968034;28;20771;-73
2022/06/14 00:25:09;;;;;;;1.40;1.30;;;20.20;99.90;;;;;;4970937;28;20774;-73
2022/06/14 00:27:36;;;;;;;1.30;1.20;;;20.20;99.90;;;;;;4970982;28;20202;-72
2022/06/14 00:30:04;;;;;;;1.10;1.00;;;20.20;99.90;;;;;;4969893;28;20291;-73
2022/06/14 00:32:31;;;;;;;1.15;1.13;;;20.20;99.90;;;;;;4971273;28;20441;-72
2022/06/14 00:34:58;;;;;;;1.02;1.02;;;20.10;99.90;;;;;;4965091;28;20292;-73
2022/06/14 00:37:25;;;;;;;1.20;1.10;;;20.10;99.90;;;;;;4967033;28;20592;-72
2022/06/14 00:39:53;;;;;;;1.25;0.93;;;20.00;99.90;;;;;;4966024;28;20271;-72
2022/06/14 00:42:23;;;;;;;1.10;1.10;;;20.00;99.90;;;;;;4969435;28;20201;-73
2022/06/14 00:45:04;;;;;;;1.23;1.13;;;20.00;99.90;;;;;;4969836;28;20225;-73
2022/06/14 00:47:37;;;;;;;1.02;1.02;;;20.00;99.90;;;;;;4965925;28;20298;-73
2022/06/14 00:50:12;;;;;;;1.48;1.38;;;19.90;99.90;;;;;;4966818;28;20738;-72
2022/06/14 00:52:42;;;;;;;1.00;1.00;;;19.80;99.90;;;;;;4967657;28;20228;-72
2022/06/14 00:55:15;;;;;;;1.00;1.00;;;19.70;99.90;;;;;;4967964;28;20226;-72
2022/06/14 00:57:45;;;;;;;0.90;0.90;;;19.70;99.90;;;;;;4974000;28;20205;-72
2022/06/14 01:00:17;;;;;;;1.13;1.02;;;19.80;99.90;;;;;;4967417;28;20225;-71
2022/06/14 01:02:50;;;;;;;1.95;1.10;;;19.80;99.90;;;;;;4965494;28;21548;-72
2022/06/14 01:05:24;;;;;;;1.20;1.10;;;19.80;99.90;;;;;;4966144;28;20237;-72
2022/06/14 01:07:56;;;;;;;0.80;0.80;;;19.80;99.90;;;;;;4967621;28;20755;-72
2022/06/14 01:10:29;;;;;;;1.08;1.05;;;19.80;99.90;;;;;;4965965;28;20645;-73
2022/06/14 01:12:59;;;;;;;1.08;1.02;;;19.90;99.90;;;;;;4964680;28;20249;-73
2022/06/14 01:15:29;;;;;;;1.17;1.08;;;19.80;99.90;;;;;;4964939;28;20308;-72
2022/06/14 01:18:00;;;;;;;1.20;1.10;;;19.80;99.90;;;;;;4964761;28;20205;-72
2022/06/14 01:20:27;;;;;;;1.02;1.02;;;19.80;99.90;;;;;;4967335;28;20225;-73
2022/06/14 01:22:56;;;;;;;1.15;0.93;;;19.80;99.90;;;;;;4969782;28;20186;-72
2022/06/14 01:25:25;;;;;;;1.23;1.10;;;19.80;99.90;;;;;;4969229;28;20229;-72
2022/06/14 01:27:54;;;;;;;1.10;1.10;;;19.80;99.90;;;;;;4967261;28;20206;-72
2022/06/14 01:30:24;;;;;;;1.00;1.00;;;19.70;99.90;;;;;;4966632;28;20870;-73
2022/06/14 01:32:59;;;;;;;1.30;1.00;;;19.60;99.90;;;;;;4967957;28;20273;-72
2022/06/14 01:35:29;;;;;;;1.30;1.20;;;19.60;99.90;;;;;;4967711;28;20229;-73
2022/06/14 01:38:00;;;;;;;1.00;1.00;;;19.60;99.90;;;;;;4966728;28;20224;-73
2022/06/14 01:40:41;;;;;;;1.40;1.30;;;19.60;99.90;;;;;;4966077;28;20221;-72
2022/06/14 01:43:36;;;;;;;1.00;1.00;;;19.60;99.90;;;;;;4967437;28;20869;-72
2022/06/14 01:46:11;;;;;;;1.20;1.20;;;19.60;99.90;;;;;;4962665;28;20221;-72
2022/06/14 01:48:46;;;;;;;1.58;1.10;;;19.50;99.90;;;;;;4963590;28;20604;-72
2022/06/14 01:54:13;;;;;;;1.13;1.02;;;19.50;99.90;;;;;;4968023;28;20333;-73
2022/06/14 01:56:47;;;;;;;1.27;1.20;;;19.50;99.90;;;;;;5074043;23;20236;-73
2022/06/14 01:59:21;;;;;;;1.40;1.30;;;19.50;99.90;;;;;;4969989;28;20204;-72
2022/06/14 02:01:58;;;;;;;1.30;1.20;;;19.50;99.90;;;;;;4965743;28;20202;-73
2022/06/14 02:04:38;;;;;;;1.33;1.23;;;19.50;99.90;;;;;;4963308;28;20283;-71
2022/06/14 02:07:15;;;;;;;1.08;1.08;;;19.40;99.90;;;;;;4948304;28;20273;-73
2022/06/14 02:09:54;;;;;;;1.20;1.20;;;19.30;99.90;;;;;;4946305;28;20867;-72
2022/06/14 02:12:30;;;;;;;1.20;1.10;;;19.20;99.90;;;;;;4947685;28;20229;-72
2022/06/14 02:15:03;;;;;;;1.27;1.20;;;19.10;99.90;;;;;;4946035;28;20217;-72
2022/06/14 02:17:35;;;;;;;1.00;0.90;;;19.10;99.90;;;;;;4946861;28;20206;-72
2022/06/14 02:20:08;;;;;;;1.52;1.42;;;19.20;99.90;;;;;;4948413;28;20305;-73
2022/06/14 02:22:42;;;;;;;0.90;0.90;;;19.20;99.90;;;;;;4949555;28;20761;-72
2022/06/14 02:25:15;;;;;;;1.00;1.00;;;19.30;99.90;;;;;;4945629;28;20596;-73
2022/06/14 02:27:49;;;;;;;1.20;1.10;;;19.30;99.90;;;;;;4947721;28;20300;-73
2022/06/14 02:30:19;;;;;;;1.35;1.25;;;19.30;99.90;;;;;;4946389;28;20280;-72
2022/06/14 02:32:51;;;;;;;0.93;0.93;;;19.30;99.90;;;;;;4951402;28;20891;-72
2022/06/14 02:35:24;;;;;;;1.35;1.25;;;19.30;99.90;;;;;;4944197;28;20713;-72
2022/06/14 02:37:57;;;;;;;1.00;1.00;;;19.20;99.90;;;;;;4947621;28;20207;-72
2022/06/14 02:40:29;;;;;;;2.05;0.90;;;19.30;99.90;;;;;;4947176;28;20229;-72
2022/06/14 02:43:01;;;;;;;1.38;1.30;;;19.20;99.90;;;;;;4948308;28;20249;-72
2022/06/14 02:45:32;;;;;;;1.30;1.20;;;19.20;99.90;;;;;;4945658;28;20229;-72
2022/06/14 02:48:04;;;;;;;0.90;0.90;;;19.10;99.90;;;;;;4947677;28;20201;-72
2022/06/14 02:50:36;;;;;;;1.17;1.08;;;19.10;99.90;;;;;;4946316;28;20231;-72
2022/06/14 02:53:14;;;;;;;1.20;1.10;;;19.10;99.90;;;;;;4946780;28;20222;-72
2022/06/14 02:55:48;;;;;;;1.00;1.00;;;19.00;99.90;;;;;;4945474;28;20329;-72
2022/06/14 02:58:21;;;;;;;1.10;1.10;;;19.00;99.90;;;;;;4945996;28;20213;-72
2022/06/14 03:00:53;;;;;;;1.10;1.10;;;18.90;99.90;;;;;;4944264;28;20861;-72
2022/06/14 03:03:25;;;;;;;1.33;1.23;;;18.90;99.90;;;;;;4946052;28;20680;-72
2022/06/14 03:05:57;;;;;;;1.30;1.20;;;18.90;99.90;;;;;;4942612;28;20248;-73
2022/06/14 03:08:28;;;;;;;1.40;1.30;;;18.90;99.90;;;;;;4947947;28;20607;-72
2022/06/14 03:11:05;;;;;;;1.20;1.17;;;18.90;99.90;;;;;;4942875;28;20222;-72
2022/06/14 03:13:39;;;;;;;1.17;1.10;;;18.80;99.90;;;;;;4947858;28;20797;-74
2022/06/14 03:16:19;;;;;;;1.13;1.13;;;18.80;99.90;;;;;;4944706;28;20743;-73
2022/06/14 03:18:52;;;;;;;1.52;1.15;;;18.80;99.90;;;;;;4947055;28;21615;-72
2022/06/14 03:21:23;;;;;;;0.90;0.90;;;18.80;99.90;;;;;;4946424;28;20720;-72
2022/06/14 03:23:56;;;;;;;1.33;1.17;;;18.80;99.90;;;;;;4949410;28;20198;-73
2022/06/14 03:26:32;;;;;;;1.48;1.10;;;18.80;99.90;;;;;;4948759;28;20226;-73
2022/06/14 03:29:06;;;;;;;0.98;0.98;;;18.70;99.90;;;;;;4947230;28;20209;-73
2022/06/14 03:31:38;;;;;;;1.08;1.00;;;18.70;99.90;;;;;;4947184;28;20740;-72
2022/06/14 03:34:10;;;;;;;1.27;1.20;;;18.70;99.90;;;;;;4947401;29;20222;-72
2022/06/14 03:36:38;;;;;;;1.15;1.10;;;18.70;99.90;;;;;;4944514;28;20229;-73
2022/06/14 03:39:10;;;;;;;1.38;1.27;;;18.70;99.90;;;;;;4949080;28;20206;-72
2022/06/14 03:41:43;;;;;;;1.20;1.10;;;18.70;99.90;;;;;;4944781;28;20731;-73
2022/06/14 03:44:12;;;;;;;0.98;0.98;;;18.60;99.90;;;;;;4948543;28;20614;-73
2022/06/14 03:46:42;;;;;;;1.48;1.38;;;18.60;99.90;;;;;;4951527;28;20580;-73
2022/06/14 03:49:13;;;;;;;1.20;1.10;;;18.60;99.90;;;;;;4951110;28;20206;-72
2022/06/14 03:52:01;;;;;;;1.60;1.50;;;18.60;99.90;;;;;;4948723;28;20233;-74
2022/06/14 03:54:53;;;;;;;1.20;1.20;;;18.50;99.90;;;;;;4950366;28;20206;-73
2022/06/14 03:57:47;;;;;;;1.20;1.10;;;18.50;99.90;;;;;;4947805;28;20206;-72
2022/06/14 04:00:20;;;;;;;1.17;1.17;;;18.50;99.90;;;;;;4951037;28;20222;-72
2022/06/14 04:03:01;;;;;;;1.20;1.20;;;18.60;99.90;;;;;;4949559;28;20210;-72
2022/06/14 04:05:46;;;;;;;1.10;0.93;;;18.70;99.90;;;;;;4949227;28;21009;-73
2022/06/14 04:08:25;;;;;;;1.20;1.20;;;18.70;99.90;;;;;;4950062;28;20250;-71
2022/06/14 04:11:02;;;;;;;1.30;1.20;;;18.70;99.90;;;;;;4952888;28;20779;-73
2022/06/14 04:13:42;;;;;;;1.20;1.10;;;18.80;99.90;;;;;;4949392;28;20221;-73
2022/06/14 04:16:25;;;;;;;1.98;1.55;;;18.80;99.90;;;;;;4949122;28;20222;-73
2022/06/14 04:18:59;;;;;;;1.35;1.10;;;18.80;99.90;;;;;;4948584;28;20279;-73
2022/06/14 04:21:36;;;;;;;1.30;1.20;;;18.80;99.90;;;;;;4948231;28;20222;-72
2022/06/14 04:24:10;;;;;;;1.30;1.20;;;18.90;99.90;;;;;;4948125;28;20253;-73
2022/06/14 04:26:46;;;;;;;1.80;1.10;;;19.10;99.90;;;;;;4947332;28;20261;-73
2022/06/14 04:29:22;;;;;;;1.00;1.00;;;19.20;99.90;;;;;;4947911;28;20681;-72
2022/06/14 04:31:53;;;;;;;1.02;1.02;;;19.30;99.90;;;;;;4949942;28;20226;-73
2022/06/14 04:34:26;;;;;;;1.23;1.23;;;19.40;99.90;;;;;;4951734;28;20221;-72
2022/06/14 04:36:57;;;;;;;1.13;1.13;;;19.50;99.90;;;;;;4945527;28;20230;-73
2022/06/14 04:39:28;;;;;;;1.00;1.00;;;19.60;99.90;;;;;;4947668;28;20206;-72
2022/06/14 04:42:01;;;;;;;1.27;1.17;;;19.70;99.90;;;;;;4945012;28;20304;-76
2022/06/14 04:44:35;;;;;;;1.40;1.30;;;19.80;99.90;;;;;;4947561;28;20625;-72
2022/06/14 04:47:09;;;;;;;1.35;1.25;;;19.80;99.90;;;;;;4947921;28;20241;-72
2022/06/14 04:49:44;;;;;;;1.08;1.08;;;19.80;99.90;;;;;;4947598;28;20202;-72
2022/06/14 04:52:18;;;;;;;1.40;1.30;;;19.80;99.90;;;;;;4947953;28;20221;-73
2022/06/14 04:54:50;;;;;;;1.20;1.20;;;19.90;99.90;;;;;;4950303;28;20457;-72
2022/06/14 04:57:22;;;;;;;1.30;1.20;;;19.90;99.90;;;;;;4952436;28;20230;-72
2022/06/14 04:59:54;;;;;;;1.40;1.30;;;20.10;99.90;;;;;;4952608;28;20201;-74
2022/06/14 05:02:25;;;;;;;1.27;1.20;;;20.00;99.90;;;;;;4950362;28;20476;-74
2022/06/14 05:04:57;;;;;;;2.00;1.67;;;20.00;99.90;;;;;;4949239;28;20208;-74
2022/06/14 05:07:30;;;;;;;1.50;1.40;;;19.90;99.90;;;;;;4948530;28;20222;-74
2022/06/14 05:10:03;;;;;;;1.95;1.58;;;19.90;99.90;;;;;;4950427;28;20225;-75
2022/06/14 05:12:36;;;;;;;1.50;1.40;;;19.90;99.90;;;;;;4949654;28;20279;-74
2022/06/14 05:15:10;;;;;;;1.77;1.67;;;19.90;99.90;;;;;;4947620;28;20206;-72
2022/06/14 05:17:43;;;;;;;1.75;1.65;;;19.90;99.90;;;;;;4952854;28;20225;-74
2022/06/14 05:20:14;;;;;;;1.67;1.50;;;19.90;99.90;;;;;;4954225;28;20607;-74
2022/06/14 05:22:49;;;;;;;1.85;1.75;;;19.90;99.90;;;;;;4949953;28;20231;-75
2022/06/14 05:25:17;;;;;;;1.92;1.73;;;20.00;99.90;;;;;;4950593;28;20233;-75
2022/06/14 05:27:52;;;;;;;3.58;2.20;;;20.10;99.90;;;;;;4953854;29;20226;-74
2022/06/14 05:30:41;;;;;;;2.58;2.10;;;20.10;99.90;;;;;;4951154;28;20201;-73
2022/06/14 05:33:32;;;;;;;1.85;1.75;;;20.20;99.90;;;;;;4947787;28;20297;-75
2022/06/14 05:36:05;;;;;;;2.08;1.83;;;20.30;99.90;;;;;;4952249;28;20230;-73
2022/06/14 05:38:41;;;;;;;1.88;1.70;;;20.30;99.90;;;;;;4952103;29;20222;-74
2022/06/14 05:41:16;;;;;;;1.70;1.60;;;20.40;99.90;;;;;;4955595;28;20198;-79
2022/06/14 05:43:48;;;;;;;1.75;1.65;;;20.50;99.90;;;;;;4959592;28;20233;-74
2022/06/14 05:46:25;;;;;;;1.88;1.73;;;20.60;99.90;;;;;;4950509;28;20219;-74
2022/06/14 05:48:54;;;;;;;1.67;1.58;;;20.60;99.90;;;;;;4949653;28;20225;-74
2022/06/14 05:51:25;;;;;;;1.83;1.50;;;20.70;99.90;;;;;;4953077;28;20268;-73
2022/06/14 05:53:58;;;;;;;2.42;1.80;;;20.80;99.90;;;;;;4949199;28;20222;-74
2022/06/14 05:56:31;;;;;;;2.05;1.63;;;20.90;99.90;;;;;;4945503;29;20237;-74
2022/06/14 05:59:05;;;;;;;1.70;1.60;;;20.80;99.90;;;;;;4950396;28;20222;-74
2022/06/14 06:01:39;;;;;;;3.10;1.80;;;20.90;99.90;;;;;;4950594;29;20198;-73
2022/06/14 06:04:12;;;;;;;2.30;1.90;;;21.00;99.90;;;;;;4953206;28;20801;-75
2022/06/14 06:06:44;;;;;;;2.08;1.50;;;21.00;99.90;;;;;;4949913;28;20228;-75
2022/06/14 06:09:17;;;;;;;1.63;1.52;;;20.90;99.90;;;;;;4952687;28;20312;-74
2022/06/14 06:11:48;;;;;;;3.83;1.70;;;20.80;99.90;;;;;;4950151;29;20229;-74
2022/06/14 06:14:19;;;;;;;1.85;1.67;;;20.90;99.90;;;;;;4952068;28;20222;-74
2022/06/14 06:16:52;;;;;;;1.90;1.58;;;21.10;99.90;;;;;;4952661;28;20732;-73
2022/06/14 06:19:23;;;;;;;2.47;1.88;;;21.30;99.90;;;;;;4951347;28;20648;-73
2022/06/14 06:21:57;;;;;;;2.13;1.63;;;21.50;99.90;;;;;;4950348;28;20269;-75
2022/06/14 06:24:31;;;;;;;2.10;1.80;;;21.60;99.90;;;;;;4947168;28;20668;-74
2022/06/14 06:27:03;;;;;;;4.50;1.63;;;21.60;99.90;;;;;;4955685;28;20261;-75
2022/06/14 06:29:37;;;;;;;2.40;1.90;;;21.60;99.90;;;;;;4956120;28;20238;-74
2022/06/14 06:32:08;;;;;;;2.47;1.95;;;21.60;99.90;;;;;;4951805;29;20209;-74
2022/06/14 06:34:36;;;;;;;4.15;2.22;;;21.50;99.90;;;;;;4946301;28;20222;-74
2022/06/14 06:37:09;;;;;;;3.50;2.13;;;21.30;99.90;;;;;;4950121;28;20293;-74
2022/06/14 06:39:45;;;;;;;3.95;2.13;;;21.20;99.90;;;;;;4947970;28;20269;-74
2022/06/14 06:42:19;;;;;;;2.55;2.00;;;21.40;99.90;;;;;;4948724;28;20201;-74
2022/06/14 06:44:53;;;;;;;2.53;1.60;;;21.50;99.90;;;;;;4945169;28;20221;-74
2022/06/14 06:47:28;;;;;;;1.98;1.70;;;21.20;99.90;;;;;;4943749;28;20205;-73
2022/06/14 06:50:15;;;;;;;2.08;1.90;;;21.20;99.90;;;;;;4945764;28;20237;-73
2022/06/14 06:53:00;;;;;;;2.22;1.67;;;21.20;99.90;;;;;;4946536;28;20689;-74
2022/06/14 06:55:36;;;;;;;2.47;1.88;;;21.10;99.90;;;;;;4943126;28;20234;-74
2022/06/14 06:58:10;;;;;;;1.80;1.70;;;20.90;99.90;;;;;;4941618;28;20277;-74
2022/06/14 07:00:40;;;;;;;2.58;1.70;;;21.00;99.90;;;;;;4944573;28;20202;-73
2022/06/14 07:03:17;;;;;;;3.67;2.47;;;21.00;99.90;;;;;;4939816;28;20791;-72
2022/06/14 07:05:48;;;;;;;1.73;1.63;;;21.10;99.90;;;;;;4945677;28;20241;-72
2022/06/14 07:08:21;;;;;;;1.77;1.65;;;21.20;99.90;;;;;;4945649;28;20245;-73
2022/06/14 07:10:52;;;;;;;2.13;1.52;;;21.30;99.90;;;;;;4948085;28;20210;-74
2022/06/14 07:13:27;;;;;;;1.92;1.83;;;21.50;99.90;;;;;;4948566;28;20222;-72
2022/06/14 07:16:05;;;;;;;1.70;1.60;;;21.80;99.90;;;;;;4948675;28;20217;-76
2022/06/14 07:18:41;;;;;;;2.20;1.73;;;22.40;99.90;;;;;;4947318;28;20218;-76
2022/06/14 07:21:14;;;;;;;2.20;1.75;;;22.90;99.90;;;;;;4943012;29;20226;-72
2022/06/14 07:23:46;;;;;;;2.92;1.67;;;23.10;99.90;;;;;;4940750;28;20226;-73
2022/06/14 07:26:20;;;;;;;1.98;1.80;;;23.30;99.90;;;;;;4939434;28;20245;-72
2022/06/14 07:28:55;;;;;;;2.22;2.00;;;23.30;99.90;;;;;;4940372;29;20288;-73
2022/06/14 07:31:28;;;;;;;1.85;1.70;;;23.40;99.90;;;;;;4942743;28;20210;-73
2022/06/14 07:33:58;;;;;;;1.98;1.55;;;23.40;99.90;;;;;;4939311;29;20226;-73
2022/06/14 07:36:35;;;;;;;2.03;1.85;;;23.50;99.90;;;;;;4945975;28;20542;-74
2022/06/14 07:39:08;;;;;;;2.05;1.85;;;23.50;99.90;;;;;;4943699;29;20225;-73
2022/06/14 07:41:42;;;;;;;2.05;1.85;;;23.50;99.90;;;;;;4946107;28;20213;-73
2022/06/14 07:44:18;;;;;;;1.70;1.60;;;23.50;99.90;;;;;;4940583;28;20269;-74
2022/06/14 07:46:56;;;;;;;2.00;1.85;;;23.50;99.90;;;;;;4943419;28;20313;-74
2022/06/14 07:49:31;;;;;;;2.72;1.55;;;23.50;99.90;;;;;;4937547;28;20233;-73
2022/06/14 07:52:03;;;;;;;2.05;1.88;;;23.60;99.90;;;;;;4943346;28;20488;-74
2022/06/14 07:54:36;;;;;;;2.10;1.73;;;23.70;99.90;;;;;;4942333;28;20226;-73
2022/06/14 07:57:09;;;;;;;2.47;1.80;;;23.80;99.90;;;;;;4958239;23;20232;-79
2022/06/14 07:59:42;;;;;;;2.33;1.70;;;23.80;99.90;;;;;;4964315;28;20225;-81
2022/06/14 08:02:18;;;;;;;1.48;1.38;;;23.80;99.90;;;;;;4974025;28;20225;-82
2022/06/14 08:04:55;;;;;;;2.08;1.88;;;24.00;99.90;;;;;;4957551;28;20221;-82
2022/06/14 08:07:23;;;;;;;1.60;1.45;;;24.10;99.90;;;;;;4967892;28;20552;-81
2022/06/14 08:09:58;;;;;;;2.13;2.03;;;24.10;99.90;;;;;;4976182;28;20656;-82
2022/06/14 08:12:36;;;;;;;3.33;1.90;;;24.20;99.90;;;;;;4966809;28;20201;-81
2022/06/14 08:15:08;;;;;;;2.40;1.90;;;24.30;99.90;;;;;;4966471;28;20222;-81
2022/06/14 08:17:42;;;;;;;2.10;1.92;;;24.40;99.90;;;;;;4956661;28;20732;-81
2022/06/14 08:20:21;;;;;;;2.10;1.90;;;24.40;99.90;;;;;;4959512;28;20308;-83
2022/06/14 08:22:53;;;;;;;2.78;1.77;;;24.40;99.90;;;;;;4959827;28;20201;-82
2022/06/14 08:25:25;;;;;;;2.00;1.73;;;24.50;99.90;;;;;;4965055;28;20218;-81
2022/06/14 08:28:00;;;;;;;1.67;1.58;;;24.60;99.90;;;;;;4965262;28;20193;-81
2022/06/14 08:30:32;;;;;;;2.25;1.92;;;24.70;99.90;;;;;;4966703;28;20229;-82
2022/06/14 08:33:05;;;;;;;3.40;1.70;;;24.80;99.90;;;;;;4966304;28;20190;-82
2022/06/14 08:35:37;;;;;;;2.03;1.75;;;24.70;99.90;;;;;;4965155;28;20229;-82
2022/06/14 08:38:12;;;;;;;1.80;1.70;;;24.80;99.90;;;;;;4964709;28;20285;-82
2022/06/14 08:40:51;;;;;;;2.30;1.60;;;25.00;99.90;;;;;;4966201;28;20279;-83
2022/06/14 08:43:24;;;;;;;2.33;2.05;;;25.00;99.90;;;;;;4965690;28;20660;-79
2022/06/14 08:46:11;;;;;;;3.65;1.73;;;25.10;99.90;;;;;;4957774;28;20560;-81
2022/06/14 08:48:42;;;;;;;2.28;1.75;;;25.10;99.90;;;;;;4967673;28;20205;-80
2022/06/14 08:51:20;;;;;;;2.42;1.83;;;25.20;99.90;;;;;;4964767;28;20200;-80
2022/06/14 08:54:15;;;;;;;1.63;1.52;;;25.40;99.90;;;;;;4964472;28;20197;-83
2022/06/14 08:57:03;;;;;;;1.85;1.70;;;25.40;99.90;;;;;;4964053;28;20221;-80
2022/06/14 08:59:54;;;;;;;2.15;1.70;;;25.50;99.90;;;;;;4964967;28;20226;-80
2022/06/14 09:03:07;;;;;;;1.58;1.48;;;25.80;99.90;;;;;;4964105;28;20264;-82
2022/06/14 09:06:01;;;;;;;1.73;1.40;;;26.00;99.90;;;;;;4960967;28;20222;-82
2022/06/14 09:09:18;;;;;;;1.50;1.40;;;26.10;99.90;;;;;;4892576;28;20205;-80
2022/06/14 09:12:23;;;;;;;1.70;1.60;;;26.20;99.90;;;;;;4961968;28;20910;-82
2022/06/14 09:15:27;;;;;;;2.83;1.80;;;26.10;99.90;;;;;;4963413;28;20217;-81
2022/06/14 09:18:11;;;;;;;2.05;1.70;;;26.20;99.90;;;;;;4963909;28;20225;-81
2022/06/14 09:20:42;;;;;;;3.67;1.63;;;26.40;99.90;;;;;;4962460;28;20209;-80
2022/06/14 09:23:38;;;;;;;1.98;1.77;;;26.60;99.90;;;;;;4963381;28;20679;-82
2022/06/14 09:26:32;;;;;;;1.80;1.52;;;26.80;99.90;;;;;;4966603;28;20236;-86
2022/06/14 09:29:32;;;;;;;1.60;1.50;;;26.90;99.90;;;;;;4960946;28;20208;-83
2022/06/14 09:32:24;;;;;;;1.80;1.67;;;26.90;99.90;;;;;;4964487;28;20224;-82
2022/06/14 09:35:16;;;;;;;1.65;1.40;;;27.00;99.90;;;;;;4944812;28;20222;-87
2022/06/14 09:38:07;;;;;;;1.50;1.40;;;27.10;99.90;;;;;;4962960;28;20973;-85
2022/06/14 09:40:51;;;;;;;1.77;1.65;;;27.10;99.90;;;;;;4959941;28;20198;-85
2022/06/14 09:43:41;;;;;;;1.77;1.67;;;27.10;99.90;;;;;;4955662;28;20220;-84
2022/06/14 09:46:33;;;;;;;3.08;1.60;;;27.20;99.90;;;;;;4959759;28;20198;-84
2022/06/14 09:49:40;;;;;;;2.60;1.63;;;27.10;99.90;;;;;;4961881;28;20288;-82
2022/06/14 09:52:44;;;;;;;2.15;1.50;;;27.00;99.90;;;;;;4959914;28;20201;-83
2022/06/14 09:55:35;;;;;;;1.98;1.75;;;27.30;99.90;;;;;;4963007;28;20707;-82
2022/06/14 09:58:42;;;;;;;1.48;1.38;;;27.60;99.90;;;;;;4962331;28;20676;-84
2022/06/14 10:01:18;;;;;;;1.90;1.50;;;27.50;99.90;;;;;;4959040;28;20213;-85
2022/06/14 10:04:16;;;;;;;1.73;1.63;;;27.50;99.90;;;;;;4959726;28;20252;-84
2022/06/14 10:07:23;;;;;;;1.88;1.67;;;27.80;99.90;;;;;;4959639;28;20572;-82
2022/06/14 10:10:15;;;;;;;1.77;1.60;;;27.80;99.90;;;;;;4960546;28;20246;-83
2022/06/14 10:13:16;;;;;;;1.50;1.40;;;27.90;99.90;;;;;;4961111;28;20233;-84
2022/06/14 10:15:52;;;;;;;2.00;1.80;;;27.90;99.90;;;;;;4957250;28;20237;-86
2022/06/14 10:18:35;;;;;;;1.80;1.70;;;28.00;99.90;;;;;;4960621;28;20229;-86
2022/06/14 10:21:07;;;;;;;1.83;1.50;;;28.00;99.90;;;;;;4958465;28;20296;-85
2022/06/14 10:23:47;;;;;;;1.90;1.80;;;28.00;99.90;;;;;;4961406;28;20217;-84
2022/06/14 10:29:40;;;;;;;1.67;1.35;;;28.30;99.90;;;;;;4959044;28;20629;-84
2022/06/14 10:32:57;;;;;;;1.67;1.55;;;28.40;99.90;;;;;;4959535;28;20308;-86
2022/06/14 10:35:34;;;;;;;1.48;1.38;;;28.20;99.90;;;;;;4961826;28;20241;-84
2022/06/14 10:38:26;;;;;;;1.35;1.25;;;28.30;99.90;;;;;;4961979;28;20228;-83
2022/06/14 10:40:57;;;;;;;1.85;1.65;;;28.50;99.90;;;;;;4957348;28;20205;-85
2022/06/14 10:43:32;;;;;;;4.70;1.58;;;28.90;99.90;;;;;;4957987;28;20526;-84
2022/06/14 10:46:04;;;;;;;1.90;1.70;;;29.10;99.90;;;;;;4961577;28;20285;-83
2022/06/14 10:49:01;;;;;;;1.80;1.70;;;29.30;99.90;;;;;;4956535;28;20265;-86
2022/06/14 10:51:46;;;;;;;2.20;1.80;;;29.20;99.90;;;;;;4953602;28;20197;-84
2022/06/14 10:54:21;;;;;;;2.05;1.63;;;29.00;99.90;;;;;;4954305;28;20234;-84
2022/06/14 10:57:18;;;;;;;2.25;1.75;;;29.00;99.90;;;;;;4956846;28;20244;-82
2022/06/14 11:00:07;;;;;;;1.70;1.60;;;29.10;99.90;;;;;;4953693;28;20863;-85
2022/06/14 11:02:57;;;;;;;2.10;1.75;;;29.30;99.90;;;;;;4960725;28;20233;-83
2022/06/14 11:05:32;;;;;;;1.48;1.38;;;29.40;99.90;;;;;;4958946;28;20897;-82
2022/06/14 11:08:13;;;;;;;1.45;1.35;;;29.20;99.90;;;;;;4955998;28;20207;-85
2022/06/14 11:10:58;;;;;;;3.72;1.75;;;29.20;99.90;;;;;;4956723;28;20229;-86
2022/06/14 11:13:37;;;;;;;1.80;1.70;;;29.20;99.90;;;;;;4956091;28;20205;-85
2022/06/14 11:16:11;;;;;;;2.20;1.73;;;29.20;99.90;;;;;;4951856;28;20229;-85
2022/06/14 11:19:13;;;;;;;2.97;1.50;;;29.30;99.90;;;;;;4958364;28;20209;-86
2022/06/14 11:21:56;;;;;;;2.08;1.58;;;29.30;99.90;;;;;;4961736;28;20405;-83
2022/06/14 11:24:35;;;;;;;2.30;2.10;;;29.30;99.90;;;;;;4957530;28;20206;-85
2022/06/14 11:27:15;;;;;;;2.40;1.65;;;29.50;99.90;;;;;;4960001;28;20198;-86
2022/06/14 11:29:51;;;;;;;1.90;1.52;;;29.50;99.90;;;;;;4955157;28;20236;-83
2022/06/14 11:32:30;;;;;;;2.88;2.00;;;29.70;99.90;;;;;;4952327;28;20201;-82
2022/06/14 11:35:05;;;;;;;3.00;2.00;;;29.90;99.90;;;;;;4954161;28;20253;-84
2022/06/14 11:38:06;;;;;;;1.90;1.80;;;29.80;99.90;;;;;;4960116;28;20272;-83
2022/06/14 11:40:39;;;;;;;3.08;1.52;;;29.80;99.90;;;;;;4958143;28;20724;-85
2022/06/14 11:43:19;;;;;;;1.83;1.70;;;29.80;99.90;;;;;;4956773;28;20264;-87
2022/06/14 11:45:53;;;;;;;1.75;1.65;;;29.70;99.90;;;;;;4954698;28;20700;-85
2022/06/14 11:48:28;;;;;;;2.85;1.90;;;29.80;99.90;;;;;;4958648;28;20205;-85
2022/06/14 11:51:06;;;;;;;1.85;1.75;;;29.80;99.90;;;;;;4956926;28;20232;-87
2022/06/14 11:54:07;;;;;;;4.50;1.60;;;29.90;99.90;;;;;;4959186;28;20209;-84
2022/06/14 11:56:46;;;;;;;1.75;1.65;;;29.90;99.90;;;;;;4955711;28;20228;-82
2022/06/14 11:59:29;;;;;;;2.08;1.85;;;30.00;99.90;;;;;;4957254;28;20198;-82
2022/06/14 12:02:12;;;;;;;1.90;1.80;;;30.10;99.90;;;;;;4956444;28;20672;-86
2022/06/14 12:04:50;;;;;;;1.83;1.50;;;30.00;99.90;;;;;;4961135;28;20205;-83
2022/06/14 12:07:23;;;;;;;1.70;1.60;;;30.20;99.90;;;;;;4960043;28;20205;-84
2022/06/14 12:10:31;;;;;;;1.80;1.70;;;30.20;99.90;;;;;;4965088;28;20236;-83
2022/06/14 12:13:13;;;;;;;3.97;2.00;;;30.10;99.90;;;;;;4960678;28;20613;-84
2022/06/14 12:15:47;;;;;;;1.80;1.70;;;30.10;99.90;;;;;;4963497;28;20240;-81
2022/06/14 12:18:17;;;;;;;2.22;2.05;;;30.10;99.90;;;;;;4963685;28;20208;-84
2022/06/14 12:20:56;;;;;;;2.05;1.85;;;30.10;99.90;;;;;;4961660;28;20225;-85
2022/06/14 12:23:28;;;;;;;2.38;1.67;;;30.10;99.90;;;;;;4964747;28;20261;-85
2022/06/14 12:28:55;;;;;;;2.05;1.80;;;30.00;99.90;;;;;;4961597;28;20588;-84
2022/06/14 12:31:28;;;;;;;1.98;1.88;;;30.10;99.90;;;;;;4961749;28;20228;-84
2022/06/14 12:34:02;;;;;;;4.47;2.42;;;30.30;99.90;;;;;;4963842;28;20201;-84
2022/06/14 12:36:39;;;;;;;2.05;1.90;;;30.40;99.90;;;;;;4965629;28;20943;-84
2022/06/14 12:39:13;;;;;;;2.72;2.10;;;30.30;99.90;;;;;;4963965;28;20209;-84
2022/06/14 12:41:50;;;;;;;2.95;2.10;;;29.80;99.90;;;;;;4967066;28;20777;-84
2022/06/14 12:44:39;;;;;;;2.15;1.95;;;29.50;99.90;;;;;;4966878;28;20232;-85
2022/06/14 12:47:15;;;;;;;2.15;1.98;;;29.40;99.90;;;;;;4961626;28;20268;-84
2022/06/14 12:49:47;;;;;;;3.08;1.92;;;29.30;99.90;;;;;;4962634;28;20275;-84
2022/06/14 12:52:20;;;;;;;2.33;2.05;;;29.40;99.90;;;;;;4963625;28;20213;-85
2022/06/14 12:54:55;;;;;;;3.40;2.42;;;29.50;99.90;;;;;;4957668;28;20209;-85
2022/06/14 12:57:29;;;;;;;2.42;2.22;;;29.50;99.90;;;;;;4963375;28;20795;-85
2022/06/14 13:00:20;;;;;;;3.13;2.03;;;29.40;99.90;;;;;;4962133;28;20205;-86
2022/06/14 13:02:55;;;;;;;2.45;2.28;;;29.40;99.90;;;;;;4960891;28;20228;-84
2022/06/14 13:05:26;;;;;;;2.60;2.40;;;29.40;99.90;;;;;;4964527;28;20755;-79
2022/06/14 13:08:05;;;;;;;2.38;2.17;;;29.20;99.90;;;;;;4960405;28;20201;-87
2022/06/14 13:10:44;;;;;;;2.05;1.90;;;29.20;99.90;;;;;;4960311;28;20295;-86
2022/06/14 13:13:32;;;;;;;2.83;2.30;;;29.50;99.90;;;;;;4960287;28;20204;-82
2022/06/14 13:16:07;;;;;;;2.47;2.28;;;29.70;99.90;;;;;;4959716;28;20228;-83
2022/06/14 13:18:55;;;;;;;3.72;2.50;;;29.80;99.90;;;;;;4962916;28;20197;-84
2022/06/14 13:21:32;;;;;;;2.50;2.30;;;29.70;99.90;;;;;;4961100;28;20232;-86
2022/06/14 13:24:09;;;;;;;2.08;1.98;;;29.50;99.90;;;;;;4963411;28;20205;-88
2022/06/14 13:26:49;;;;;;;2.70;2.50;;;29.50;99.90;;;;;;4962952;28;20241;-84
2022/06/14 13:29:29;;;;;;;2.65;2.45;;;29.40;99.90;;;;;;4959456;28;20239;-87
2022/06/14 13:32:14;;;;;;;2.50;2.30;;;29.40;99.90;;;;;;4960245;28;20228;-83
2022/06/14 13:34:50;;;;;;;3.42;2.20;;;29.60;99.90;;;;;;4960065;28;20629;-83
2022/06/14 13:37:29;;;;;;;2.58;2.38;;;29.60;99.90;;;;;;4961566;28;20309;-83
2022/06/14 13:40:06;;;;;;;2.38;2.17;;;29.60;99.90;;;;;;4962613;28;20683;-84
2022/06/14 13:42:39;;;;;;;4.10;2.53;;;29.50;99.90;;;;;;4961833;28;20472;-86
2022/06/14 13:45:11;;;;;;;2.60;2.40;;;29.40;99.90;;;;;;4959992;28;20296;-86
2022/06/14 13:47:47;;;;;;;2.88;2.60;;;29.40;99.90;;;;;;4964025;28;20244;-86
2022/06/14 13:50:21;;;;;;;3.63;2.78;;;29.20;99.90;;;;;;4959966;28;20202;-81